Time;durP1;ratioP1;P1;durP2;ratioP2;P2;SDS_P1;SDS_P2;PMS_P1;PMS_P2;Temp;Humidity;BMP_temperature;BMP_pressure;BME280_temperature;BME280_humidity;BME280_pressure;Samples;Min_cycle;Max_cycle;Signal;HPM_P1;HPM_P2
2023/03/26 00:01:50;;;;;;;7.72;2.55;;;6.90;91.70;;;;;;5049937;28;20033;-45
2023/03/26 00:04:18;;;;;;;15.30;4.63;;;6.90;91.60;;;;;;5047879;28;20040;-44
2023/03/26 00:06:56;;;;;;;16.10;3.88;;;6.90;91.30;;;;;;5033784;28;20045;-45
2023/03/26 00:09:23;;;;;;;11.32;2.13;;;6.90;91.20;;;;;;5033567;28;20032;-45
2023/03/26 00:11:52;;;;;;;11.43;2.78;;;6.90;91.00;;;;;;5033253;28;20422;-47
2023/03/26 00:14:19;;;;;;;10.45;2.33;;;6.90;90.90;;;;;;5042891;28;20405;-45
2023/03/26 00:16:46;;;;;;;6.88;2.08;;;6.90;90.80;;;;;;5053310;28;20067;-44
2023/03/26 00:19:12;;;;;;;6.03;1.63;;;7.00;90.80;;;;;;5052238;28;20028;-47
2023/03/26 00:21:42;;;;;;;12.48;2.03;;;7.00;90.70;;;;;;5052873;28;20025;-49
2023/03/26 00:24:14;;;;;;;10.13;1.63;;;7.00;90.70;;;;;;5043008;28;20132;-48
2023/03/26 00:26:51;;;;;;;10.68;3.03;;;7.00;90.50;;;;;;5032975;28;20022;-44
2023/03/26 00:29:21;;;;;;;12.90;3.97;;;7.00;90.50;;;;;;5053705;28;20025;-50
2023/03/26 00:31:49;;;;;;;6.88;1.80;;;7.00;90.50;;;;;;5052300;28;20075;-44
2023/03/26 00:34:17;;;;;;;9.23;1.80;;;7.00;90.50;;;;;;5037245;28;20095;-44
2023/03/26 00:36:45;;;;;;;9.43;2.33;;;7.00;90.30;;;;;;5032031;28;20028;-47
2023/03/26 00:39:14;;;;;;;14.60;2.45;;;7.00;90.20;;;;;;5033257;28;20036;-42
2023/03/26 00:41:43;;;;;;;11.43;2.38;;;7.00;90.10;;;;;;5048421;28;20395;-46
2023/03/26 00:44:11;;;;;;;14.17;3.60;;;7.00;89.80;;;;;;5032714;28;20025;-45
2023/03/26 00:46:36;;;;;;;12.48;3.33;;;6.90;89.40;;;;;;5031678;28;20370;-43
2023/03/26 00:49:04;;;;;;;9.13;2.80;;;6.90;89.30;;;;;;5048467;28;20021;-43
2023/03/26 00:51:33;;;;;;;10.20;2.30;;;6.90;89.10;;;;;;5033159;28;20125;-42
2023/03/26 00:54:01;;;;;;;10.40;2.83;;;6.90;89.10;;;;;;5032992;28;20053;-44
2023/03/26 00:56:26;;;;;;;12.10;1.92;;;6.90;89.00;;;;;;5032528;28;20083;-43
2023/03/26 00:58:54;;;;;;;12.32;2.10;;;6.90;88.80;;;;;;5032623;28;20030;-43
2023/03/26 01:01:27;;;;;;;15.57;2.55;;;6.90;88.60;;;;;;5032509;28;20107;-43
2023/03/26 01:03:58;;;;;;;6.32;2.25;;;6.90;88.30;;;;;;5015032;28;20120;-43
2023/03/26 01:06:36;;;;;;;9.75;2.05;;;6.90;87.50;;;;;;5031217;28;20033;-45
2023/03/26 01:09:14;;;;;;;17.48;2.20;;;6.80;86.30;;;;;;5031690;28;20025;-43
2023/03/26 01:11:43;;;;;;;13.85;3.05;;;6.70;85.00;;;;;;5031963;28;20391;-43
2023/03/26 01:14:27;;;;;;;11.10;3.53;;;6.80;84.80;;;;;;5031555;28;20272;-44
2023/03/26 01:17:01;;;;;;;17.10;4.07;;;6.70;85.10;;;;;;5032061;28;20033;-45
2023/03/26 01:19:48;;;;;;;13.45;2.78;;;6.70;85.90;;;;;;5031271;28;20033;-43
2023/03/26 01:22:20;;;;;;;22.80;3.92;;;6.70;86.20;;;;;;5035709;28;20488;-44
2023/03/26 01:24:55;;;;;;;18.45;3.17;;;6.60;85.70;;;;;;5052349;28;20033;-44
2023/03/26 01:27:45;;;;;;;20.92;2.83;;;6.60;85.60;;;;;;5056372;28;20548;-45
2023/03/26 01:30:11;;;;;;;;;;;6.50;85.80;;;;;;5043590;28;20048;-43
2023/03/26 01:33:00;;;;;;;16.13;3.58;;;6.50;86.30;;;;;;5053150;28;19924;-47
2023/03/26 01:36:00;;;;;;;19.73;4.63;;;6.50;86.70;;;;;;5047677;28;20048;-44
2023/03/26 01:38:53;;;;;;;12.07;2.85;;;6.50;86.70;;;;;;5044556;28;20044;-44
2023/03/26 01:41:37;;;;;;;11.75;3.25;;;6.50;86.70;;;;;;5053378;28;20036;-43
2023/03/26 01:44:29;;;;;;;10.63;2.50;;;6.50;86.50;;;;;;5054946;28;20033;-44
2023/03/26 01:46:58;;;;;;;18.73;2.97;;;6.40;86.10;;;;;;5054129;28;20523;-43
2023/03/26 01:49:28;;;;;;;16.65;2.97;;;6.50;85.80;;;;;;5053897;28;20652;-45
2023/03/26 01:51:56;;;;;;;11.85;2.50;;;6.40;85.50;;;;;;5052393;28;20053;-44
2023/03/26 01:54:26;;;;;;;11.65;3.15;;;6.50;85.30;;;;;;5055131;28;20083;-44
2023/03/26 01:57:11;;;;;;;14.05;3.55;;;6.40;85.10;;;;;;5038600;28;20029;-44
2023/03/26 02:00:12;;;;;;;11.70;2.33;;;6.40;84.20;;;;;;5034758;28;20386;-44
2023/03/26 02:03:29;;;;;;;9.73;1.95;;;6.50;84.10;;;;;;5034651;28;20039;-44
2023/03/26 02:06:16;;;;;;;8.60;2.15;;;6.50;83.20;;;;;;5003399;28;20139;-45
2023/03/26 02:08:47;;;;;;;12.00;2.03;;;6.50;82.80;;;;;;5034482;28;20026;-44
2023/03/26 02:11:14;;;;;;;16.70;2.47;;;6.40;82.90;;;;;;5035795;28;20025;-44
2023/03/26 02:13:44;;;;;;;9.07;2.58;;;6.50;83.00;;;;;;5034928;28;20124;-48
2023/03/26 02:16:18;;;;;;;12.48;2.58;;;6.50;83.50;;;;;;5036120;28;20097;-44
2023/03/26 02:18:54;;;;;;;11.73;2.70;;;6.50;84.20;;;;;;5040668;28;20071;-44
2023/03/26 02:21:32;;;;;;;9.35;1.85;;;6.50;84.40;;;;;;5054948;28;20037;-45
2023/03/26 02:24:04;;;;;;;;;;;6.50;84.50;;;;;;5055760;28;20087;-44
2023/03/26 02:26:33;;;;;;;11.88;2.67;;;6.40;84.20;;;;;;5035462;28;19912;-45
2023/03/26 02:29:00;;;;;;;11.87;2.40;;;6.40;84.30;;;;;;5035530;28;20033;-44
2023/03/26 02:31:28;;;;;;;8.18;1.75;;;6.40;84.30;;;;;;5050488;28;20037;-46
2023/03/26 02:33:58;;;;;;;11.52;2.00;;;6.40;84.20;;;;;;5035510;28;20057;-44
2023/03/26 02:36:26;;;;;;;10.55;2.28;;;6.40;84.20;;;;;;5052839;28;20432;-47
2023/03/26 02:38:54;;;;;;;9.95;2.55;;;6.40;84.10;;;;;;5050665;28;20439;-44
2023/03/26 02:41:21;;;;;;;16.13;3.20;;;6.40;84.10;;;;;;5037830;28;20143;-44
2023/03/26 02:43:48;;;;;;;9.90;2.55;;;6.40;84.30;;;;;;5045814;28;20032;-45
2023/03/26 02:46:16;;;;;;;10.02;2.80;;;6.40;84.40;;;;;;5035266;28;20439;-44
2023/03/26 02:48:42;;;;;;;10.18;2.53;;;6.40;84.30;;;;;;5045601;28;20047;-47
2023/03/26 02:51:08;;;;;;;19.27;4.63;;;6.40;84.60;;;;;;5053617;28;20091;-45
2023/03/26 02:53:38;;;;;;;11.25;2.67;;;6.40;85.20;;;;;;5035414;28;20432;-45
2023/03/26 02:56:08;;;;;;;15.77;3.17;;;6.40;85.00;;;;;;5037885;28;20033;-44
2023/03/26 02:58:37;;;;;;;11.15;1.88;;;6.40;85.30;;;;;;5053121;28;20029;-45
2023/03/26 03:01:04;;;;;;;19.37;2.87;;;6.40;85.10;;;;;;5054780;28;20028;-46
2023/03/26 03:03:30;;;;;;;13.18;2.55;;;6.40;85.10;;;;;;5054650;28;20071;-43
2023/03/26 03:05:56;;;;;;;13.70;3.03;;;6.40;85.30;;;;;;5046924;28;20061;-45
2023/03/26 03:08:25;;;;;;;9.20;2.00;;;6.40;85.50;;;;;;5037657;28;20033;-43
2023/03/26 03:10:58;;;;;;;7.40;2.15;;;6.40;85.70;;;;;;5051139;28;20176;-44
2023/03/26 03:13:26;;;;;;;20.63;2.17;;;6.40;85.60;;;;;;5017530;28;20037;-46
2023/03/26 03:15:54;;;;;;;10.35;1.70;;;6.40;85.70;;;;;;5042501;28;20491;-46
2023/03/26 03:18:21;;;;;;;12.07;2.72;;;6.40;85.90;;;;;;5052621;28;20120;-48
2023/03/26 03:20:48;;;;;;;8.25;1.67;;;6.40;86.10;;;;;;5033553;28;20108;-49
2023/03/26 03:23:17;;;;;;;10.93;3.25;;;6.40;86.10;;;;;;5034110;28;20415;-46
2023/03/26 03:25:51;;;;;;;18.80;2.65;;;6.40;86.70;;;;;;5048780;28;20029;-45
2023/03/26 03:28:17;;;;;;;12.45;2.70;;;6.30;86.90;;;;;;5039571;28;20473;-47
2023/03/26 03:30:47;;;;;;;12.82;3.28;;;6.30;87.40;;;;;;5033118;28;20394;-46
2023/03/26 03:33:18;;;;;;;11.70;3.30;;;6.30;87.40;;;;;;5034217;28;20041;-48
2023/03/26 03:35:48;;;;;;;15.55;2.42;;;6.30;87.40;;;;;;5038422;28;20710;-46
2023/03/26 03:38:19;;;;;;;12.57;2.47;;;6.30;87.60;;;;;;5050986;28;20053;-49
2023/03/26 03:40:46;;;;;;;13.30;3.22;;;6.40;87.80;;;;;;5033987;28;20095;-45
2023/03/26 03:43:15;;;;;;;13.88;3.20;;;6.30;87.70;;;;;;5032721;28;20021;-46
2023/03/26 03:45:41;;;;;;;18.60;3.10;;;6.30;87.80;;;;;;5047031;28;20033;-43
2023/03/26 03:48:08;;;;;;;14.35;3.35;;;6.30;87.50;;;;;;5051050;28;20730;-44
2023/03/26 03:50:35;;;;;;;15.57;2.80;;;6.20;87.20;;;;;;5052388;28;20086;-49
2023/03/26 03:53:05;;;;;;;12.25;2.25;;;6.20;86.50;;;;;;5052668;28;20481;-44
2023/03/26 03:55:33;;;;;;;15.30;2.58;;;6.10;86.00;;;;;;5052571;28;20032;-45
2023/03/26 03:58:00;;;;;;;11.95;2.38;;;6.20;85.90;;;;;;5041969;28;20103;-45
2023/03/26 04:00:27;;;;;;;10.80;2.65;;;6.10;85.70;;;;;;5033494;28;20026;-44
2023/03/26 04:02:55;;;;;;;13.77;2.40;;;6.10;85.80;;;;;;5044213;28;20029;-45
2023/03/26 04:05:22;;;;;;;8.20;2.38;;;6.10;85.10;;;;;;5038271;28;20372;-43
2023/03/26 04:07:50;;;;;;;9.40;2.10;;;6.00;84.60;;;;;;5053286;28;20698;-44
2023/03/26 04:10:18;;;;;;;12.52;2.67;;;6.00;84.20;;;;;;5050114;28;20455;-44
2023/03/26 04:12:48;;;;;;;12.35;2.85;;;6.00;84.30;;;;;;5053324;28;20056;-46
2023/03/26 04:15:16;;;;;;;11.30;2.53;;;6.00;83.30;;;;;;5039859;28;20325;-46
2023/03/26 04:17:43;;;;;;;18.95;2.35;;;6.00;83.00;;;;;;5033785;28;20091;-45
2023/03/26 04:20:14;;;;;;;12.10;2.40;;;6.00;82.60;;;;;;5056747;28;20043;-44
2023/03/26 04:22:44;;;;;;;11.63;3.47;;;6.10;82.90;;;;;;5048444;28;20053;-46
2023/03/26 04:25:12;;;;;;;13.45;3.13;;;6.00;82.70;;;;;;5042814;28;20056;-44
2023/03/26 04:27:48;;;;;;;13.35;2.53;;;6.00;81.80;;;;;;5047482;28;20030;-45
2023/03/26 04:30:22;;;;;;;15.13;1.95;;;5.90;81.10;;;;;;5037885;28;20122;-45
2023/03/26 04:32:50;;;;;;;9.70;2.30;;;6.00;80.90;;;;;;5053076;28;20439;-43
2023/03/26 04:35:18;;;;;;;13.55;3.63;;;6.00;80.80;;;;;;5041991;28;20037;-44
2023/03/26 04:37:45;;;;;;;11.73;3.25;;;6.00;79.80;;;;;;5042716;28;20442;-46
2023/03/26 04:40:20;;;;;;;11.30;2.17;;;5.90;79.50;;;;;;5050408;28;20037;-45
2023/03/26 04:42:47;;;;;;;13.20;2.67;;;5.90;79.30;;;;;;5050607;28;20058;-47
2023/03/26 04:45:26;;;;;;;15.98;3.13;;;5.80;79.40;;;;;;5052961;28;20040;-45
2023/03/26 04:47:56;;;;;;;16.77;2.83;;;5.80;79.30;;;;;;5051712;28;20037;-48
2023/03/26 04:50:25;;;;;;;10.50;3.47;;;5.70;77.80;;;;;;5038532;28;20029;-47
2023/03/26 04:52:56;;;;;;;11.52;2.38;;;5.70;78.00;;;;;;5033299;28;20022;-45
2023/03/26 04:55:32;;;;;;;14.23;2.72;;;5.80;78.50;;;;;;5032745;28;20025;-46
2023/03/26 04:58:04;;;;;;;15.38;2.58;;;5.70;78.50;;;;;;5050712;28;20170;-48
2023/03/26 05:00:31;;;;;;;15.20;2.53;;;5.80;79.20;;;;;;5051097;28;20037;-45
2023/03/26 05:03:00;;;;;;;17.38;2.50;;;5.80;79.50;;;;;;5050804;28;20021;-47
2023/03/26 05:05:27;;;;;;;15.73;2.22;;;5.80;79.90;;;;;;5049653;28;20020;-46
2023/03/26 05:07:54;;;;;;;15.02;4.00;;;5.80;80.10;;;;;;5033327;28;20056;-45
2023/03/26 05:10:21;;;;;;;11.43;2.40;;;5.80;80.00;;;;;;5039272;28;20021;-44
2023/03/26 05:12:47;;;;;;;14.85;4.57;;;5.80;80.40;;;;;;5048748;28;20025;-46
2023/03/26 05:15:14;;;;;;;17.52;2.60;;;5.70;80.00;;;;;;5018959;28;20041;-45
2023/03/26 05:17:42;;;;;;;12.45;3.28;;;5.70;80.00;;;;;;5036405;28;20031;-46
2023/03/26 05:20:15;;;;;;;13.93;2.80;;;5.60;79.70;;;;;;5048113;28;20040;-44
2023/03/26 05:22:43;;;;;;;14.90;3.65;;;5.60;78.30;;;;;;5064262;28;20077;-46
2023/03/26 05:25:11;;;;;;;16.83;5.03;;;5.50;76.70;;;;;;5042569;28;20057;-45
2023/03/26 05:27:37;;;;;;;11.57;2.75;;;5.60;76.20;;;;;;5032377;28;20025;-43
2023/03/26 05:30:06;;;;;;;11.55;3.17;;;5.60;76.40;;;;;;5032478;28;20032;-45
2023/03/26 05:32:36;;;;;;;23.65;3.92;;;5.60;76.90;;;;;;5047072;28;20567;-49
2023/03/26 05:35:06;;;;;;;12.38;3.67;;;5.60;77.20;;;;;;5032367;28;20068;-44
2023/03/26 05:37:32;;;;;;;18.20;3.65;;;5.70;77.20;;;;;;5031351;28;20421;-44
2023/03/26 05:40:00;;;;;;;14.40;5.28;;;5.70;77.40;;;;;;5032304;28;20104;-45
2023/03/26 05:42:26;;;;;;;15.70;4.80;;;5.60;77.50;;;;;;5030870;28;20091;-46
2023/03/26 05:44:54;;;;;;;22.92;4.35;;;5.70;77.90;;;;;;5038565;28;20033;-49
2023/03/26 05:47:20;;;;;;;15.23;2.97;;;5.70;77.60;;;;;;5044975;28;20484;-47
2023/03/26 05:49:48;;;;;;;14.90;3.20;;;5.70;77.20;;;;;;5044014;28;20113;-48
2023/03/26 05:52:17;;;;;;;13.13;3.00;;;5.60;77.40;;;;;;5048936;28;20048;-46
2023/03/26 05:54:46;;;;;;;13.38;2.72;;;5.60;77.00;;;;;;5050322;28;20500;-47
2023/03/26 05:57:14;;;;;;;12.02;2.38;;;5.60;77.40;;;;;;5049929;28;20132;-48
2023/03/26 05:59:41;;;;;;;13.80;2.75;;;5.60;77.60;;;;;;5050549;28;20033;-47
2023/03/26 06:02:09;;;;;;;16.10;5.22;;;5.70;78.10;;;;;;5051397;28;20032;-45
2023/03/26 06:04:39;;;;;;;13.40;3.20;;;5.80;78.30;;;;;;5050376;28;20366;-46
2023/03/26 06:07:10;;;;;;;11.23;3.05;;;5.80;78.40;;;;;;5051393;28;20025;-46
2023/03/26 06:09:40;;;;;;;13.75;3.20;;;5.90;78.90;;;;;;5046362;28;20104;-48
2023/03/26 06:12:07;;;;;;;15.85;4.35;;;5.90;79.20;;;;;;5052401;28;20029;-46
2023/03/26 06:14:36;;;;;;;13.82;3.35;;;5.90;79.50;;;;;;5055095;28;20516;-49
2023/03/26 06:17:03;;;;;;;15.07;2.97;;;5.90;79.50;;;;;;5055293;28;20347;-46
2023/03/26 06:19:30;;;;;;;11.27;4.03;;;5.90;78.70;;;;;;5049069;28;20026;-49
2023/03/26 06:21:58;;;;;;;18.52;2.97;;;5.80;78.40;;;;;;5054959;28;20029;-45
2023/03/26 06:24:26;;;;;;;14.80;3.30;;;5.80;78.10;;;;;;5053914;28;20482;-45
2023/03/26 06:26:58;;;;;;;9.20;2.63;;;5.80;77.70;;;;;;5053666;28;20033;-44
2023/03/26 06:29:26;;;;;;;17.85;2.88;;;5.80;76.90;;;;;;5054630;28;20158;-48
2023/03/26 06:31:51;;;;;;;15.73;4.03;;;5.80;76.10;;;;;;5052325;28;20089;-48
2023/03/26 06:34:28;;;;;;;9.95;3.97;;;5.90;75.60;;;;;;5053530;28;20025;-50
2023/03/26 06:36:56;;;;;;;19.15;4.55;;;5.90;74.20;;;;;;5054980;28;20025;-47
2023/03/26 06:39:25;;;;;;;18.63;2.65;;;5.90;74.10;;;;;;5049600;28;20026;-48
2023/03/26 06:41:51;;;;;;;11.40;3.40;;;6.00;74.00;;;;;;5017870;28;20042;-43
2023/03/26 06:44:19;;;;;;;17.88;3.38;;;6.00;73.10;;;;;;5017115;28;20044;-45
2023/03/26 06:46:44;;;;;;;15.50;3.58;;;6.10;73.70;;;;;;5035095;28;20040;-47
2023/03/26 06:49:11;;;;;;;15.43;3.03;;;6.10;73.40;;;;;;5050699;28;20025;-47
2023/03/26 06:51:40;;;;;;;14.13;3.15;;;6.20;74.20;;;;;;5052584;28;20029;-48
2023/03/26 06:54:07;;;;;;;14.13;2.92;;;6.20;74.70;;;;;;5050768;28;20040;-45
2023/03/26 06:56:37;;;;;;;13.40;3.40;;;6.30;74.60;;;;;;5054420;28;20029;-46
2023/03/26 06:59:03;;;;;;;17.67;5.03;;;6.30;75.10;;;;;;5053754;28;20021;-45
2023/03/26 07:01:29;;;;;;;18.20;4.07;;;6.30;74.80;;;;;;5052123;28;20496;-46
2023/03/26 07:03:57;;;;;;;13.10;3.03;;;6.20;74.30;;;;;;5053997;28;20174;-45
2023/03/26 07:06:23;;;;;;;13.18;2.63;;;6.30;75.10;;;;;;5042918;28;20139;-45
2023/03/26 07:08:49;;;;;;;16.85;3.40;;;6.30;75.50;;;;;;5034162;28;20489;-44
2023/03/26 07:11:15;;;;;;;13.98;3.15;;;6.30;75.20;;;;;;5052917;28;20044;-44
2023/03/26 07:13:43;;;;;;;17.80;3.53;;;6.40;75.60;;;;;;5054197;28;20482;-45
2023/03/26 07:16:13;;;;;;;18.35;3.30;;;6.40;75.50;;;;;;5052627;28;20041;-45
2023/03/26 07:18:39;;;;;;;11.88;2.78;;;6.40;75.20;;;;;;5048167;28;20108;-44
2023/03/26 07:21:06;;;;;;;17.17;3.40;;;6.50;75.50;;;;;;5052874;28;20040;-46
2023/03/26 07:23:34;;;;;;;19.13;3.50;;;6.50;75.40;;;;;;5053889;28;20068;-45
2023/03/26 07:26:33;;;;;;;17.05;3.00;;;6.60;74.40;;;;;;5049012;28;20040;-45
2023/03/26 07:29:21;;;;;;;15.18;3.20;;;6.60;73.90;;;;;;5034003;28;20371;-46
2023/03/26 07:32:12;;;;;;;9.98;2.97;;;6.70;74.20;;;;;;5048462;28;20025;-44
2023/03/26 07:35:03;;;;;;;14.73;3.40;;;6.80;74.00;;;;;;5053246;28;20025;-45
2023/03/26 07:38:13;;;;;;;19.65;3.10;;;6.90;75.00;;;;;;5050998;28;20029;-45
2023/03/26 07:41:04;;;;;;;12.65;2.47;;;6.90;72.70;;;;;;4989630;28;20056;-45
2023/03/26 07:43:48;;;;;;;18.27;2.92;;;6.90;72.40;;;;;;5053237;28;20068;-44
2023/03/26 07:46:14;;;;;;;15.32;3.47;;;7.00;70.90;;;;;;5052370;28;20487;-45
2023/03/26 07:48:46;;;;;;;12.23;2.47;;;6.90;71.10;;;;;;5051743;28;20060;-45
2023/03/26 07:51:13;;;;;;;9.80;3.05;;;6.90;70.40;;;;;;5050266;28;20446;-45
2023/03/26 07:53:40;;;;;;;17.92;3.47;;;6.90;70.40;;;;;;5052798;28;20350;-45
2023/03/26 07:56:28;;;;;;;10.68;2.35;;;7.00;70.80;;;;;;5048545;28;20032;-44
2023/03/26 07:59:28;;;;;;;18.27;4.93;;;7.10;70.20;;;;;;5050026;28;20450;-44
2023/03/26 08:02:31;;;;;;;14.10;2.60;;;7.20;68.90;;;;;;5038418;28;20037;-45
2023/03/26 08:05:34;;;;;;;14.20;3.38;;;7.20;68.10;;;;;;5034417;28;20361;-50
2023/03/26 08:08:21;;;;;;;13.73;2.67;;;7.30;68.50;;;;;;5049173;28;20028;-43
2023/03/26 08:11:26;;;;;;;10.40;3.80;;;7.80;67.10;;;;;;5046993;28;20525;-44
2023/03/26 08:14:29;;;;;;;16.15;3.20;;;8.10;64.50;;;;;;5027865;28;20411;-45
2023/03/26 08:17:20;;;;;;;11.80;3.00;;;8.40;66.20;;;;;;5036001;28;20017;-46
2023/03/26 08:20:09;;;;;;;15.98;3.85;;;8.20;63.00;;;;;;5050876;28;20032;-45
2023/03/26 08:22:50;;;;;;;17.30;4.50;;;8.10;64.00;;;;;;5046849;28;20033;-46
2023/03/26 08:25:28;;;;;;;11.98;3.10;;;7.90;64.50;;;;;;5033585;28;20041;-45
2023/03/26 08:28:22;;;;;;;16.38;3.13;;;7.90;63.90;;;;;;5048952;28;20128;-51
2023/03/26 08:30:53;;;;;;;8.23;2.03;;;7.90;65.00;;;;;;5051615;28;20033;-49
2023/03/26 08:33:24;;;;;;;13.80;2.90;;;7.90;64.90;;;;;;5043393;28;20159;-49
2023/03/26 08:35:53;;;;;;;8.35;2.35;;;7.90;65.60;;;;;;5034068;28;20033;-45
2023/03/26 08:38:22;;;;;;;9.98;2.47;;;8.20;65.10;;;;;;5050238;28;20044;-48
2023/03/26 08:41:00;;;;;;;12.13;3.75;;;8.20;64.70;;;;;;5052164;28;20029;-45
2023/03/26 08:43:49;;;;;;;18.50;3.50;;;8.40;62.80;;;;;;5051490;28;20021;-46
2023/03/26 08:46:27;;;;;;;12.90;2.97;;;8.40;63.60;;;;;;5037305;28;20029;-47
2023/03/26 08:49:16;;;;;;;11.63;2.22;;;8.20;63.70;;;;;;5033294;28;20121;-45
2023/03/26 08:52:08;;;;;;;11.90;1.98;;;8.00;63.10;;;;;;5034193;28;20385;-46
2023/03/26 08:55:04;;;;;;;13.25;2.97;;;8.10;62.40;;;;;;5045477;28;20332;-51
2023/03/26 08:57:45;;;;;;;16.38;2.65;;;8.30;62.00;;;;;;5046429;28;20108;-49
2023/03/26 09:01:07;;;;;;;12.95;2.17;;;8.30;62.30;;;;;;5048279;28;20086;-51
2023/03/26 09:04:10;;;;;;;8.90;2.08;;;8.40;62.30;;;;;;4971486;28;20118;-45
2023/03/26 09:06:58;;;;;;;11.52;2.70;;;8.60;62.40;;;;;;5033072;28;20033;-45
2023/03/26 09:10:01;;;;;;;12.85;2.80;;;8.90;61.80;;;;;;5043916;28;20438;-50
2023/03/26 09:12:45;;;;;;;13.48;2.78;;;8.90;62.70;;;;;;5050737;28;20063;-47
2023/03/26 09:15:42;;;;;;;11.27;2.58;;;8.90;62.90;;;;;;5050217;28;20078;-48
2023/03/26 09:18:50;;;;;;;11.32;2.78;;;8.70;64.00;;;;;;5032372;28;20466;-52
2023/03/26 09:21:54;;;;;;;8.98;2.03;;;8.50;62.30;;;;;;5037630;28;20123;-49
2023/03/26 09:24:51;;;;;;;14.85;3.20;;;8.40;61.70;;;;;;5050986;28;20057;-48
2023/03/26 09:27:51;;;;;;;17.58;2.97;;;8.40;61.00;;;;;;5051716;28;20055;-51
2023/03/26 09:30:40;;;;;;;6.60;2.08;;;8.20;61.40;;;;;;5025079;28;20402;-48
2023/03/26 09:33:26;;;;;;;9.30;2.65;;;8.30;62.00;;;;;;5040644;28;20051;-51
2023/03/26 09:36:04;;;;;;;18.25;3.38;;;8.90;59.80;;;;;;5045744;28;20068;-50
2023/03/26 09:38:51;;;;;;;15.68;3.80;;;9.70;59.10;;;;;;5050797;28;20037;-52
2023/03/26 09:41:38;;;;;;;11.00;3.33;;;9.90;59.10;;;;;;5051544;28;20025;-51
2023/03/26 09:44:35;;;;;;;13.60;2.72;;;9.70;57.90;;;;;;5035217;28;20048;-49
2023/03/26 09:47:29;;;;;;;12.00;3.08;;;9.50;58.10;;;;;;5047122;28;20099;-51
2023/03/26 09:50:14;;;;;;;12.90;2.35;;;9.20;59.00;;;;;;5049425;28;20017;-52
2023/03/26 09:53:19;;;;;;;9.80;2.50;;;9.10;58.80;;;;;;5043769;28;20036;-49
2023/03/26 09:56:09;;;;;;;10.32;2.58;;;9.60;57.10;;;;;;5047229;28;20032;-49
2023/03/26 09:58:56;;;;;;;11.77;2.40;;;10.20;54.60;;;;;;5052320;28;20033;-50
2023/03/26 10:01:59;;;;;;;8.32;2.30;;;10.60;53.60;;;;;;5042739;28;20078;-52
2023/03/26 10:04:58;;;;;;;9.63;2.20;;;11.10;53.20;;;;;;5055176;28;20029;-48
2023/03/26 10:08:00;;;;;;;10.18;3.13;;;11.40;54.40;;;;;;5036989;28;20033;-48
2023/03/26 10:10:45;;;;;;;12.82;2.53;;;11.20;51.00;;;;;;5050947;28;20025;-47
2023/03/26 10:13:23;;;;;;;10.43;2.63;;;10.50;51.40;;;;;;5068637;28;20035;-50
2023/03/26 10:15:57;;;;;;;12.57;2.55;;;11.00;54.00;;;;;;5049492;28;20037;-50
2023/03/26 10:18:48;;;;;;;10.90;2.33;;;10.90;52.90;;;;;;5044869;28;20029;-51
2023/03/26 10:21:45;;;;;;;9.75;2.33;;;10.70;54.70;;;;;;5035302;28;20038;-49
2023/03/26 10:24:17;;;;;;;12.10;3.28;;;10.10;54.40;;;;;;5045306;28;20048;-49
2023/03/26 10:27:20;;;;;;;11.27;2.83;;;9.70;54.80;;;;;;5054222;28;20025;-49
2023/03/26 10:30:16;;;;;;;12.25;2.80;;;9.50;55.60;;;;;;5048936;28;20075;-50
2023/03/26 10:33:01;;;;;;;9.32;2.63;;;9.30;57.00;;;;;;5051137;28;20040;-48
2023/03/26 10:36:00;;;;;;;11.60;2.63;;;9.10;58.60;;;;;;5051713;28;20458;-49
2023/03/26 10:38:54;;;;;;;13.48;3.15;;;9.10;57.40;;;;;;5028952;28;20052;-51
2023/03/26 10:41:51;;;;;;;8.73;2.00;;;9.40;58.40;;;;;;5053814;28;20040;-51
2023/03/26 10:44:44;;;;;;;8.52;2.17;;;9.40;55.00;;;;;;5044899;28;20025;-50
2023/03/26 10:47:38;;;;;;;12.43;2.67;;;9.20;56.10;;;;;;5052074;28;20035;-49
2023/03/26 10:50:26;;;;;;;16.13;3.45;;;9.40;56.70;;;;;;5037537;28;20029;-51
2023/03/26 10:53:27;;;;;;;14.60;2.20;;;10.00;54.00;;;;;;5043437;28;20072;-47
2023/03/26 10:56:19;;;;;;;11.05;2.20;;;10.00;54.20;;;;;;5036881;28;20029;-48
2023/03/26 10:58:48;;;;;;;11.93;2.45;;;9.70;54.80;;;;;;5024759;28;20044;-48
2023/03/26 11:01:39;;;;;;;9.15;2.42;;;9.50;56.20;;;;;;5052335;28;20029;-46
2023/03/26 11:04:45;;;;;;;13.07;2.90;;;9.70;57.60;;;;;;5053512;28;20391;-47
2023/03/26 11:07:50;;;;;;;9.45;2.55;;;9.80;57.60;;;;;;5052404;28;20021;-47
2023/03/26 11:10:41;;;;;;;10.20;3.35;;;9.80;58.10;;;;;;5048738;28;20017;-49
2023/03/26 11:13:32;;;;;;;10.00;2.92;;;9.60;56.40;;;;;;5043574;28;20021;-49
2023/03/26 11:16:30;;;;;;;9.57;2.65;;;9.60;56.70;;;;;;5049451;28;20041;-47
2023/03/26 11:19:22;;;;;;;10.48;2.40;;;9.80;57.50;;;;;;5032963;28;20025;-48
2023/03/26 11:22:13;;;;;;;13.70;2.30;;;9.80;59.90;;;;;;5048546;28;20112;-51
2023/03/26 11:24:52;;;;;;;13.13;2.75;;;9.70;58.30;;;;;;5052023;28;20481;-46
2023/03/26 11:27:45;;;;;;;9.25;2.70;;;9.60;58.10;;;;;;5046037;28;20033;-47
2023/03/26 11:30:43;;;;;;;14.75;2.63;;;9.60;56.70;;;;;;5036760;28;20029;-46
2023/03/26 11:33:35;;;;;;;14.95;2.83;;;9.60;57.30;;;;;;5053691;28;20116;-50
2023/03/26 11:36:08;;;;;;;8.13;2.20;;;9.40;57.30;;;;;;5039250;28;20025;-49
2023/03/26 11:38:47;;;;;;;6.93;1.67;;;9.10;57.20;;;;;;5049743;28;20879;-49
2023/03/26 11:41:31;;;;;;;10.30;2.28;;;9.10;58.20;;;;;;5048795;28;20187;-49
2023/03/26 11:44:27;;;;;;;12.00;2.97;;;9.70;56.00;;;;;;5042381;28;20059;-46
2023/03/26 11:47:03;;;;;;;14.02;2.95;;;10.00;55.50;;;;;;5041708;28;20381;-48
2023/03/26 11:49:31;;;;;;;10.52;2.92;;;9.90;55.20;;;;;;5042936;28;20116;-49
2023/03/26 11:52:00;;;;;;;14.60;3.08;;;9.50;55.40;;;;;;5046634;28;20029;-48
2023/03/26 11:54:32;;;;;;;13.65;2.80;;;9.30;57.10;;;;;;5043161;28;20501;-49
2023/03/26 11:57:25;;;;;;;7.20;1.80;;;9.30;57.60;;;;;;5046968;28;20386;-53
2023/03/26 12:00:09;;;;;;;8.10;2.20;;;9.50;56.50;;;;;;5045915;28;20414;-49
2023/03/26 12:02:40;;;;;;;12.60;2.85;;;9.80;56.00;;;;;;5031194;28;20062;-49
2023/03/26 12:05:35;;;;;;;16.88;2.80;;;10.00;55.10;;;;;;5041621;28;20154;-46
2023/03/26 12:08:16;;;;;;;8.48;2.33;;;9.90;54.90;;;;;;5037842;28;20374;-47
2023/03/26 12:10:43;;;;;;;11.23;2.72;;;9.60;54.90;;;;;;5042302;28;20112;-50
2023/03/26 12:13:43;;;;;;;11.10;2.05;;;9.70;57.50;;;;;;5029069;28;20331;-46
2023/03/26 12:16:29;;;;;;;12.73;2.33;;;9.30;55.00;;;;;;5032942;28;20025;-53
2023/03/26 12:19:18;;;;;;;8.32;1.90;;;9.50;55.30;;;;;;5044313;28;20655;-51
2023/03/26 12:22:00;;;;;;;11.63;2.22;;;9.60;55.90;;;;;;5034773;28;20119;-51
2023/03/26 12:24:33;;;;;;;10.80;1.90;;;9.20;54.10;;;;;;5032561;28;20276;-52
2023/03/26 12:27:36;;;;;;;11.15;2.05;;;9.10;57.20;;;;;;5047647;28;20038;-52
2023/03/26 12:30:25;;;;;;;10.98;2.33;;;9.00;58.30;;;;;;5032559;28;20514;-51
2023/03/26 12:32:56;;;;;;;9.25;2.97;;;9.00;56.90;;;;;;5051649;28;20082;-51
2023/03/26 12:35:26;;;;;;;10.85;2.67;;;8.70;58.90;;;;;;5052056;28;20435;-52
2023/03/26 12:38:37;;;;;;;19.88;3.25;;;8.70;61.00;;;;;;5051851;28;20079;-52
2023/03/26 12:41:03;;;;;;;14.10;2.88;;;8.90;61.10;;;;;;5042059;28;20064;-51
2023/03/26 12:43:50;;;;;;;14.52;2.50;;;8.90;61.30;;;;;;5048514;28;20625;-53
2023/03/26 12:46:31;;;;;;;17.83;3.78;;;8.60;58.30;;;;;;5046611;28;20052;-51
2023/03/26 12:49:00;;;;;;;10.00;2.40;;;8.50;59.00;;;;;;5042520;28;20331;-53
2023/03/26 12:51:56;;;;;;;10.27;2.50;;;8.40;59.90;;;;;;5051685;28;20032;-48
2023/03/26 12:55:10;;;;;;;10.43;2.72;;;8.40;62.30;;;;;;5035353;28;20029;-47
2023/03/26 12:57:50;;;;;;;11.88;2.72;;;8.70;62.30;;;;;;4987384;28;20038;-47
2023/03/26 13:00:20;;;;;;;;;;;8.90;60.00;;;;;;4960333;28;20141;-47
2023/03/26 13:03:23;;;;;;;10.77;3.00;;;8.90;60.70;;;;;;4989915;28;19906;-49
2023/03/26 13:06:20;;;;;;;13.35;2.67;;;8.70;59.60;;;;;;4971147;28;20030;-47
2023/03/26 13:09:24;;;;;;;11.95;2.25;;;8.40;60.60;;;;;;4979414;28;20039;-47
2023/03/26 13:12:25;;;;;;;14.05;2.60;;;8.40;61.40;;;;;;4986168;28;20043;-46
2023/03/26 13:15:27;;;;;;;13.23;3.58;;;8.90;62.80;;;;;;4973687;28;20099;-47
2023/03/26 13:18:06;;;;;;;13.55;2.67;;;9.10;57.90;;;;;;4984250;28;20046;-49
2023/03/26 13:21:15;;;;;;;14.52;2.53;;;9.10;58.60;;;;;;4989928;28;20034;-53
2023/03/26 13:24:16;;;;;;;12.70;2.88;;;8.80;57.50;;;;;;4991888;28;20360;-49
2023/03/26 13:27:10;;;;;;;12.25;2.42;;;8.70;57.40;;;;;;4992325;28;20113;-48
2023/03/26 13:30:13;;;;;;;12.48;2.72;;;8.90;58.60;;;;;;5044534;28;20028;-50
2023/03/26 13:33:19;;;;;;;15.27;3.80;;;8.90;61.10;;;;;;5043595;28;20037;-46
2023/03/26 13:36:04;;;;;;;9.75;2.75;;;8.80;60.20;;;;;;5024464;28;20052;-47
2023/03/26 13:38:39;;;;;;;13.93;3.70;;;8.60;60.20;;;;;;5044690;28;20024;-49
2023/03/26 13:41:34;;;;;;;11.32;2.40;;;8.70;60.90;;;;;;5044947;28;20037;-47
2023/03/26 13:44:30;;;;;;;11.35;2.50;;;8.50;59.90;;;;;;5049252;28;20351;-47
2023/03/26 13:47:17;;;;;;;12.40;2.65;;;8.30;61.50;;;;;;5048516;28;20469;-48